sensor_id;sensor_type;location;lat;lon;timestamp;P1;durP1;ratioP1;P2;durP2;ratioP2
1725;SDS011;41776;48.260;8.928;2023-12-20T00:02:06;0.70;;;0.70;;
1725;SDS011;41776;48.260;8.928;2023-12-20T00:04:33;0.87;;;0.70;;
1725;SDS011;41776;48.260;8.928;2023-12-20T00:06:59;0.60;;;0.60;;
1725;SDS011;41776;48.260;8.928;2023-12-20T00:09:28;0.97;;;0.63;;
1725;SDS011;41776;48.260;8.928;2023-12-20T00:11:54;0.73;;;0.73;;
1725;SDS011;41776;48.260;8.928;2023-12-20T00:14:20;1.10;;;0.60;;
1725;SDS011;41776;48.260;8.928;2023-12-20T00:16:47;0.60;;;0.60;;
1725;SDS011;41776;48.260;8.928;2023-12-20T00:19:14;0.57;;;0.57;;
1725;SDS011;41776;48.260;8.928;2023-12-20T00:21:40;0.67;;;0.67;;
1725;SDS011;41776;48.260;8.928;2023-12-20T00:24:07;0.57;;;0.50;;
1725;SDS011;41776;48.260;8.928;2023-12-20T00:26:35;0.50;;;0.50;;
1725;SDS011;41776;48.260;8.928;2023-12-20T00:29:01;1.63;;;0.80;;
1725;SDS011;41776;48.260;8.928;2023-12-20T00:31:28;1.40;;;0.70;;
1725;SDS011;41776;48.260;8.928;2023-12-20T00:33:54;0.83;;;0.80;;
1725;SDS011;41776;48.260;8.928;2023-12-20T00:36:21;0.70;;;0.60;;
1725;SDS011;41776;48.260;8.928;2023-12-20T00:38:47;0.60;;;0.60;;
1725;SDS011;41776;48.260;8.928;2023-12-20T00:41:15;1.07;;;0.50;;
1725;SDS011;41776;48.260;8.928;2023-12-20T00:43:43;0.87;;;0.70;;
1725;SDS011;41776;48.260;8.928;2023-12-20T00:46:09;0.90;;;0.60;;
1725;SDS011;41776;48.260;8.928;2023-12-20T00:48:36;0.43;;;0.43;;
1725;SDS011;41776;48.260;8.928;2023-12-20T00:51:02;0.77;;;0.60;;
1725;SDS011;41776;48.260;8.928;2023-12-20T00:53:29;0.70;;;0.70;;
1725;SDS011;41776;48.260;8.928;2023-12-20T00:55:56;0.57;;;0.57;;
1725;SDS011;41776;48.260;8.928;2023-12-20T00:58:23;0.50;;;0.50;;
1725;SDS011;41776;48.260;8.928;2023-12-20T01:00:51;0.70;;;0.70;;
1725;SDS011;41776;48.260;8.928;2023-12-20T01:03:18;1.20;;;0.60;;
1725;SDS011;41776;48.260;8.928;2023-12-20T01:05:45;0.60;;;0.60;;
1725;SDS011;41776;48.260;8.928;2023-12-20T01:08:11;0.50;;;0.50;;
1725;SDS011;41776;48.260;8.928;2023-12-20T01:10:38;1.23;;;0.80;;
1725;SDS011;41776;48.260;8.928;2023-12-20T01:13:05;1.83;;;0.60;;
1725;SDS011;41776;48.260;8.928;2023-12-20T01:15:32;0.60;;;0.60;;
1725;SDS011;41776;48.260;8.928;2023-12-20T01:17:59;1.80;;;0.67;;
1725;SDS011;41776;48.260;8.928;2023-12-20T01:20:26;0.60;;;0.60;;
1725;SDS011;41776;48.260;8.928;2023-12-20T01:22:52;1.07;;;0.60;;
1725;SDS011;41776;48.260;8.928;2023-12-20T01:25:19;1.20;;;0.57;;
1725;SDS011;41776;48.260;8.928;2023-12-20T01:27:45;0.70;;;0.70;;
1725;SDS011;41776;48.260;8.928;2023-12-20T01:30:12;0.53;;;0.53;;
1725;SDS011;41776;48.260;8.928;2023-12-20T01:32:39;0.70;;;0.60;;
1725;SDS011;41776;48.260;8.928;2023-12-20T01:35:07;0.80;;;0.60;;
1725;SDS011;41776;48.260;8.928;2023-12-20T01:37:34;0.70;;;0.40;;
1725;SDS011;41776;48.260;8.928;2023-12-20T01:40:03;0.60;;;0.60;;
1725;SDS011;41776;48.260;8.928;2023-12-20T01:42:30;0.57;;;0.43;;
1725;SDS011;41776;48.260;8.928;2023-12-20T01:44:57;0.60;;;0.60;;
1725;SDS011;41776;48.260;8.928;2023-12-20T01:47:24;0.53;;;0.53;;
1725;SDS011;41776;48.260;8.928;2023-12-20T01:49:52;0.50;;;0.50;;
1725;SDS011;41776;48.260;8.928;2023-12-20T01:52:20;0.60;;;0.60;;
1725;SDS011;41776;48.260;8.928;2023-12-20T01:54:47;0.60;;;0.60;;
1725;SDS011;41776;48.260;8.928;2023-12-20T01:57:14;0.60;;;0.60;;
1725;SDS011;41776;48.260;8.928;2023-12-20T01:59:40;0.60;;;0.60;;
1725;SDS011;41776;48.260;8.928;2023-12-20T02:02:07;0.60;;;0.60;;
1725;SDS011;41776;48.260;8.928;2023-12-20T02:04:34;0.70;;;0.70;;
1725;SDS011;41776;48.260;8.928;2023-12-20T02:07:01;0.40;;;0.40;;
1725;SDS011;41776;48.260;8.928;2023-12-20T02:09:30;0.97;;;0.60;;
1725;SDS011;41776;48.260;8.928;2023-12-20T02:11:58;0.50;;;0.50;;
1725;SDS011;41776;48.260;8.928;2023-12-20T02:14:25;1.97;;;0.70;;
1725;SDS011;41776;48.260;8.928;2023-12-20T02:16:52;0.60;;;0.60;;
1725;SDS011;41776;48.260;8.928;2023-12-20T02:19:18;0.60;;;0.60;;
1725;SDS011;41776;48.260;8.928;2023-12-20T02:21:48;0.70;;;0.70;;
1725;SDS011;41776;48.260;8.928;2023-12-20T02:24:14;0.70;;;0.70;;
1725;SDS011;41776;48.260;8.928;2023-12-20T02:26:42;0.50;;;0.50;;
1725;SDS011;41776;48.260;8.928;2023-12-20T02:29:09;0.70;;;0.70;;
1725;SDS011;41776;48.260;8.928;2023-12-20T02:31:36;0.60;;;0.60;;
1725;SDS011;41776;48.260;8.928;2023-12-20T02:34:02;0.50;;;0.50;;
1725;SDS011;41776;48.260;8.928;2023-12-20T02:36:29;0.67;;;0.50;;
1725;SDS011;41776;48.260;8.928;2023-12-20T02:38:57;1.60;;;0.60;;
1725;SDS011;41776;48.260;8.928;2023-12-20T02:41:23;2.50;;;0.97;;
1725;SDS011;41776;48.260;8.928;2023-12-20T02:43:50;0.80;;;0.80;;
1725;SDS011;41776;48.260;8.928;2023-12-20T02:46:16;1.17;;;1.00;;
1725;SDS011;41776;48.260;8.928;2023-12-20T02:48:44;5.93;;;1.33;;
1725;SDS011;41776;48.260;8.928;2023-12-20T02:51:12;3.85;;;2.13;;
1725;SDS011;41776;48.260;8.928;2023-12-20T02:53:38;0.80;;;0.80;;
1725;SDS011;41776;48.260;8.928;2023-12-20T02:56:07;0.70;;;0.70;;
1725;SDS011;41776;48.260;8.928;2023-12-20T02:58:33;1.13;;;0.60;;
1725;SDS011;41776;48.260;8.928;2023-12-20T03:01:00;0.60;;;0.60;;
1725;SDS011;41776;48.260;8.928;2023-12-20T03:03:26;0.87;;;0.60;;
1725;SDS011;41776;48.260;8.928;2023-12-20T03:05:53;0.87;;;0.70;;
1725;SDS011;41776;48.260;8.928;2023-12-20T03:08:19;0.57;;;0.50;;
1725;SDS011;41776;48.260;8.928;2023-12-20T03:10:46;0.60;;;0.60;;
1725;SDS011;41776;48.260;8.928;2023-12-20T03:13:14;0.60;;;0.60;;
1725;SDS011;41776;48.260;8.928;2023-12-20T03:15:40;0.53;;;0.53;;
1725;SDS011;41776;48.260;8.928;2023-12-20T03:18:07;0.70;;;0.70;;
1725;SDS011;41776;48.260;8.928;2023-12-20T03:20:34;1.07;;;0.50;;
1725;SDS011;41776;48.260;8.928;2023-12-20T03:23:00;0.70;;;0.70;;
1725;SDS011;41776;48.260;8.928;2023-12-20T03:25:27;0.80;;;0.60;;
1725;SDS011;41776;48.260;8.928;2023-12-20T03:27:53;0.57;;;0.40;;
1725;SDS011;41776;48.260;8.928;2023-12-20T03:30:21;0.77;;;0.70;;
1725;SDS011;41776;48.260;8.928;2023-12-20T03:32:48;0.60;;;0.60;;
1725;SDS011;41776;48.260;8.928;2023-12-20T03:35:14;1.13;;;0.87;;
1725;SDS011;41776;48.260;8.928;2023-12-20T03:37:41;0.70;;;0.70;;
1725;SDS011;41776;48.260;8.928;2023-12-20T03:40:08;1.10;;;0.60;;
1725;SDS011;41776;48.260;8.928;2023-12-20T03:42:35;0.80;;;0.80;;
1725;SDS011;41776;48.260;8.928;2023-12-20T03:45:02;1.20;;;0.53;;
1725;SDS011;41776;48.260;8.928;2023-12-20T03:47:30;1.13;;;0.70;;
1725;SDS011;41776;48.260;8.928;2023-12-20T03:49:57;1.03;;;0.70;;
1725;SDS011;41776;48.260;8.928;2023-12-20T03:52:23;0.60;;;0.60;;
1725;SDS011;41776;48.260;8.928;2023-12-20T03:54:50;0.63;;;0.57;;
1725;SDS011;41776;48.260;8.928;2023-12-20T03:57:16;0.80;;;0.60;;
1725;SDS011;41776;48.260;8.928;2023-12-20T03:59:43;2.00;;;0.50;;
1725;SDS011;41776;48.260;8.928;2023-12-20T04:02:09;1.27;;;1.17;;
1725;SDS011;41776;48.260;8.928;2023-12-20T04:04:37;0.80;;;0.67;;
1725;SDS011;41776;48.260;8.928;2023-12-20T04:07:04;1.40;;;0.93;;
1725;SDS011;41776;48.260;8.928;2023-12-20T04:09:31;0.50;;;0.50;;
1725;SDS011;41776;48.260;8.928;2023-12-20T04:11:57;0.67;;;0.67;;
1725;SDS011;41776;48.260;8.928;2023-12-20T04:14:24;0.63;;;0.63;;
1725;SDS011;41776;48.260;8.928;2023-12-20T04:16:51;0.63;;;0.50;;
1725;SDS011;41776;48.260;8.928;2023-12-20T04:19:17;0.70;;;0.70;;
1725;SDS011;41776;48.260;8.928;2023-12-20T04:21:45;1.00;;;0.77;;
1725;SDS011;41776;48.260;8.928;2023-12-20T04:24:12;1.57;;;1.10;;
1725;SDS011;41776;48.260;8.928;2023-12-20T04:26:38;1.93;;;1.20;;
1725;SDS011;41776;48.260;8.928;2023-12-20T04:29:05;0.97;;;0.70;;
1725;SDS011;41776;48.260;8.928;2023-12-20T04:31:31;0.70;;;0.70;;
1725;SDS011;41776;48.260;8.928;2023-12-20T04:33:58;0.97;;;0.70;;
1725;SDS011;41776;48.260;8.928;2023-12-20T04:36:25;0.63;;;0.63;;
1725;SDS011;41776;48.260;8.928;2023-12-20T04:38:56;0.70;;;0.67;;
1725;SDS011;41776;48.260;8.928;2023-12-20T04:41:22;0.50;;;0.50;;
1725;SDS011;41776;48.260;8.928;2023-12-20T04:43:49;0.50;;;0.50;;
1725;SDS011;41776;48.260;8.928;2023-12-20T04:46:16;4.67;;;0.80;;
1725;SDS011;41776;48.260;8.928;2023-12-20T04:48:42;0.50;;;0.50;;
1725;SDS011;41776;48.260;8.928;2023-12-20T04:51:09;0.63;;;0.63;;
1725;SDS011;41776;48.260;8.928;2023-12-20T04:53:36;0.77;;;0.43;;
1725;SDS011;41776;48.260;8.928;2023-12-20T04:56:04;0.50;;;0.50;;
1725;SDS011;41776;48.260;8.928;2023-12-20T04:58:31;0.60;;;0.60;;
1725;SDS011;41776;48.260;8.928;2023-12-20T05:00:58;0.50;;;0.50;;
1725;SDS011;41776;48.260;8.928;2023-12-20T05:03:24;0.40;;;0.40;;
1725;SDS011;41776;48.260;8.928;2023-12-20T05:05:51;1.03;;;0.60;;
1725;SDS011;41776;48.260;8.928;2023-12-20T05:08:17;1.10;;;0.50;;
1725;SDS011;41776;48.260;8.928;2023-12-20T05:10:44;1.43;;;0.70;;
1725;SDS011;41776;48.260;8.928;2023-12-20T05:13:12;0.50;;;0.50;;
1725;SDS011;41776;48.260;8.928;2023-12-20T05:15:39;0.60;;;0.60;;
1725;SDS011;41776;48.260;8.928;2023-12-20T05:18:06;1.27;;;0.97;;
1725;SDS011;41776;48.260;8.928;2023-12-20T05:20:32;0.60;;;0.60;;
1725;SDS011;41776;48.260;8.928;2023-12-20T05:22:59;0.67;;;0.67;;
1725;SDS011;41776;48.260;8.928;2023-12-20T05:25:25;1.70;;;0.70;;
1725;SDS011;41776;48.260;8.928;2023-12-20T05:27:52;0.87;;;0.70;;
1725;SDS011;41776;48.260;8.928;2023-12-20T05:30:20;1.13;;;0.90;;
1725;SDS011;41776;48.260;8.928;2023-12-20T05:32:47;0.50;;;0.50;;
1725;SDS011;41776;48.260;8.928;2023-12-20T05:35:13;0.70;;;0.70;;
1725;SDS011;41776;48.260;8.928;2023-12-20T05:37:40;0.70;;;0.70;;
1725;SDS011;41776;48.260;8.928;2023-12-20T05:40:09;0.80;;;0.80;;
1725;SDS011;41776;48.260;8.928;2023-12-20T05:42:36;0.60;;;0.60;;
1725;SDS011;41776;48.260;8.928;2023-12-20T05:45:05;0.77;;;0.77;;
1725;SDS011;41776;48.260;8.928;2023-12-20T05:47:37;0.50;;;0.50;;
1725;SDS011;41776;48.260;8.928;2023-12-20T05:50:04;1.03;;;0.77;;
1725;SDS011;41776;48.260;8.928;2023-12-20T05:52:31;0.87;;;0.67;;
1725;SDS011;41776;48.260;8.928;2023-12-20T05:54:58;1.03;;;0.60;;
1725;SDS011;41776;48.260;8.928;2023-12-20T05:57:26;0.70;;;0.70;;
1725;SDS011;41776;48.260;8.928;2023-12-20T05:59:53;0.67;;;0.67;;
1725;SDS011;41776;48.260;8.928;2023-12-20T06:02:19;0.70;;;0.70;;
1725;SDS011;41776;48.260;8.928;2023-12-20T06:04:50;0.77;;;0.77;;
1725;SDS011;41776;48.260;8.928;2023-12-20T06:07:16;0.70;;;0.70;;
1725;SDS011;41776;48.260;8.928;2023-12-20T06:09:43;2.10;;;0.70;;
1725;SDS011;41776;48.260;8.928;2023-12-20T06:12:10;2.23;;;0.77;;
1725;SDS011;41776;48.260;8.928;2023-12-20T06:14:36;0.80;;;0.80;;
1725;SDS011;41776;48.260;8.928;2023-12-20T06:17:03;0.60;;;0.60;;
1725;SDS011;41776;48.260;8.928;2023-12-20T06:19:30;1.80;;;0.83;;
1725;SDS011;41776;48.260;8.928;2023-12-20T06:21:58;0.77;;;0.77;;
1725;SDS011;41776;48.260;8.928;2023-12-20T06:24:24;0.50;;;0.50;;
1725;SDS011;41776;48.260;8.928;2023-12-20T06:26:53;0.63;;;0.63;;
1725;SDS011;41776;48.260;8.928;2023-12-20T06:29:19;0.60;;;0.60;;
1725;SDS011;41776;48.260;8.928;2023-12-20T06:31:48;0.70;;;0.70;;
1725;SDS011;41776;48.260;8.928;2023-12-20T06:34:16;0.60;;;0.60;;
1725;SDS011;41776;48.260;8.928;2023-12-20T06:36:42;0.57;;;0.57;;
1725;SDS011;41776;48.260;8.928;2023-12-20T06:39:10;1.23;;;1.00;;
1725;SDS011;41776;48.260;8.928;2023-12-20T06:41:39;1.53;;;1.00;;
1725;SDS011;41776;48.260;8.928;2023-12-20T06:44:08;2.20;;;1.20;;
1725;SDS011;41776;48.260;8.928;2023-12-20T06:46:37;1.63;;;1.27;;
1725;SDS011;41776;48.260;8.928;2023-12-20T06:49:07;1.43;;;0.90;;
1725;SDS011;41776;48.260;8.928;2023-12-20T06:51:33;1.80;;;1.20;;
1725;SDS011;41776;48.260;8.928;2023-12-20T06:54:00;1.43;;;0.97;;
1725;SDS011;41776;48.260;8.928;2023-12-20T06:56:29;0.90;;;0.63;;
1725;SDS011;41776;48.260;8.928;2023-12-20T06:58:55;1.03;;;0.80;;
1725;SDS011;41776;48.260;8.928;2023-12-20T07:01:22;0.73;;;0.73;;
1725;SDS011;41776;48.260;8.928;2023-12-20T07:03:48;2.70;;;0.80;;
1725;SDS011;41776;48.260;8.928;2023-12-20T07:06:15;0.80;;;0.80;;
1725;SDS011;41776;48.260;8.928;2023-12-20T07:08:42;1.03;;;0.90;;
1725;SDS011;41776;48.260;8.928;2023-12-20T07:11:09;0.70;;;0.70;;
1725;SDS011;41776;48.260;8.928;2023-12-20T07:13:37;8.27;;;2.20;;
1725;SDS011;41776;48.260;8.928;2023-12-20T07:16:03;2.53;;;1.53;;
1725;SDS011;41776;48.260;8.928;2023-12-20T07:18:30;2.13;;;1.20;;
1725;SDS011;41776;48.260;8.928;2023-12-20T07:20:57;1.07;;;0.90;;
1725;SDS011;41776;48.260;8.928;2023-12-20T07:23:23;0.80;;;0.70;;
1725;SDS011;41776;48.260;8.928;2023-12-20T07:25:51;0.90;;;0.90;;
1725;SDS011;41776;48.260;8.928;2023-12-20T07:28:18;0.80;;;0.80;;
1725;SDS011;41776;48.260;8.928;2023-12-20T07:30:46;0.70;;;0.70;;
1725;SDS011;41776;48.260;8.928;2023-12-20T07:33:12;1.33;;;0.90;;
1725;SDS011;41776;48.260;8.928;2023-12-20T07:35:39;0.83;;;0.83;;
1725;SDS011;41776;48.260;8.928;2023-12-20T07:38:05;0.70;;;0.70;;
1725;SDS011;41776;48.260;8.928;2023-12-20T07:40:32;0.63;;;0.63;;
1725;SDS011;41776;48.260;8.928;2023-12-20T07:42:59;0.70;;;0.70;;
1725;SDS011;41776;48.260;8.928;2023-12-20T07:45:25;3.07;;;0.90;;
1725;SDS011;41776;48.260;8.928;2023-12-20T07:47:53;0.87;;;0.83;;
1725;SDS011;41776;48.260;8.928;2023-12-20T07:50:22;1.13;;;1.03;;
1725;SDS011;41776;48.260;8.928;2023-12-20T07:52:51;0.70;;;0.70;;
1725;SDS011;41776;48.260;8.928;2023-12-20T07:55:18;0.60;;;0.60;;
1725;SDS011;41776;48.260;8.928;2023-12-20T07:57:44;0.60;;;0.60;;
1725;SDS011;41776;48.260;8.928;2023-12-20T08:00:11;0.73;;;0.70;;
1725;SDS011;41776;48.260;8.928;2023-12-20T08:02:39;0.83;;;0.67;;
1725;SDS011;41776;48.260;8.928;2023-12-20T08:05:07;0.77;;;0.70;;
1725;SDS011;41776;48.260;8.928;2023-12-20T08:07:34;0.60;;;0.60;;
1725;SDS011;41776;48.260;8.928;2023-12-20T08:10:00;0.70;;;0.70;;
1725;SDS011;41776;48.260;8.928;2023-12-20T08:12:27;0.80;;;0.80;;
1725;SDS011;41776;48.260;8.928;2023-12-20T08:14:53;0.60;;;0.60;;
1725;SDS011;41776;48.260;8.928;2023-12-20T08:17:20;1.27;;;1.00;;
1725;SDS011;41776;48.260;8.928;2023-12-20T08:19:48;1.10;;;1.00;;
1725;SDS011;41776;48.260;8.928;2023-12-20T08:22:16;1.50;;;0.90;;
1725;SDS011;41776;48.260;8.928;2023-12-20T08:24:42;1.50;;;0.93;;
1725;SDS011;41776;48.260;8.928;2023-12-20T08:27:09;1.30;;;1.03;;
1725;SDS011;41776;48.260;8.928;2023-12-20T08:29:36;1.77;;;1.13;;
1725;SDS011;41776;48.260;8.928;2023-12-20T08:32:02;1.13;;;1.03;;
1725;SDS011;41776;48.260;8.928;2023-12-20T08:34:29;3.23;;;1.93;;
1725;SDS011;41776;48.260;8.928;2023-12-20T08:36:56;3.60;;;1.80;;
1725;SDS011;41776;48.260;8.928;2023-12-20T08:39:24;1.97;;;1.10;;
1725;SDS011;41776;48.260;8.928;2023-12-20T08:41:51;1.40;;;1.30;;
1725;SDS011;41776;48.260;8.928;2023-12-20T08:44:17;2.40;;;1.20;;
1725;SDS011;41776;48.260;8.928;2023-12-20T08:46:44;2.57;;;1.40;;
1725;SDS011;41776;48.260;8.928;2023-12-20T08:49:12;1.53;;;1.33;;
1725;SDS011;41776;48.260;8.928;2023-12-20T08:51:39;1.67;;;0.97;;
1725;SDS011;41776;48.260;8.928;2023-12-20T08:54:06;1.57;;;1.00;;
1725;SDS011;41776;48.260;8.928;2023-12-20T08:56:37;1.73;;;1.13;;
1725;SDS011;41776;48.260;8.928;2023-12-20T08:59:06;1.00;;;0.90;;
1725;SDS011;41776;48.260;8.928;2023-12-20T09:01:33;0.90;;;0.80;;
1725;SDS011;41776;48.260;8.928;2023-12-20T09:03:59;1.50;;;1.00;;
1725;SDS011;41776;48.260;8.928;2023-12-20T09:06:28;1.80;;;1.30;;
1725;SDS011;41776;48.260;8.928;2023-12-20T09:08:55;3.17;;;1.37;;
1725;SDS011;41776;48.260;8.928;2023-12-20T09:11:22;2.53;;;1.30;;
1725;SDS011;41776;48.260;8.928;2023-12-20T09:13:51;2.40;;;1.20;;
1725;SDS011;41776;48.260;8.928;2023-12-20T09:16:17;2.37;;;1.17;;
1725;SDS011;41776;48.260;8.928;2023-12-20T09:18:44;3.53;;;1.40;;
1725;SDS011;41776;48.260;8.928;2023-12-20T09:21:10;2.33;;;1.33;;
1725;SDS011;41776;48.260;8.928;2023-12-20T09:23:39;2.17;;;1.30;;
1725;SDS011;41776;48.260;8.928;2023-12-20T09:26:06;1.10;;;1.03;;
1725;SDS011;41776;48.260;8.928;2023-12-20T09:28:32;1.97;;;1.20;;
1725;SDS011;41776;48.260;8.928;2023-12-20T09:31:03;1.37;;;0.97;;
1725;SDS011;41776;48.260;8.928;2023-12-20T09:33:30;0.90;;;0.90;;
1725;SDS011;41776;48.260;8.928;2023-12-20T09:35:57;3.93;;;0.97;;
1725;SDS011;41776;48.260;8.928;2023-12-20T09:38:23;2.17;;;0.97;;
1725;SDS011;41776;48.260;8.928;2023-12-20T09:40:50;1.10;;;1.00;;
1725;SDS011;41776;48.260;8.928;2023-12-20T09:43:18;1.20;;;0.90;;
1725;SDS011;41776;48.260;8.928;2023-12-20T09:45:46;1.40;;;0.83;;
1725;SDS011;41776;48.260;8.928;2023-12-20T09:48:15;0.80;;;0.80;;
1725;SDS011;41776;48.260;8.928;2023-12-20T09:50:44;0.90;;;0.90;;
1725;SDS011;41776;48.260;8.928;2023-12-20T09:53:11;1.90;;;0.97;;
1725;SDS011;41776;48.260;8.928;2023-12-20T09:55:41;4.67;;;2.37;;
1725;SDS011;41776;48.260;8.928;2023-12-20T09:58:08;4.20;;;2.97;;
1725;SDS011;41776;48.260;8.928;2023-12-20T10:00:35;1.87;;;1.23;;
1725;SDS011;41776;48.260;8.928;2023-12-20T10:03:02;4.30;;;2.27;;
1725;SDS011;41776;48.260;8.928;2023-12-20T10:05:33;0.90;;;0.83;;
1725;SDS011;41776;48.260;8.928;2023-12-20T10:08:00;1.50;;;1.10;;
1725;SDS011;41776;48.260;8.928;2023-12-20T10:10:28;1.00;;;0.90;;
1725;SDS011;41776;48.260;8.928;2023-12-20T10:13:01;2.13;;;1.40;;
1725;SDS011;41776;48.260;8.928;2023-12-20T10:15:29;1.67;;;1.10;;
1725;SDS011;41776;48.260;8.928;2023-12-20T10:18:04;1.87;;;1.20;;
1725;SDS011;41776;48.260;8.928;2023-12-20T10:20:33;1.10;;;1.10;;
1725;SDS011;41776;48.260;8.928;2023-12-20T10:22:59;1.27;;;0.90;;
1725;SDS011;41776;48.260;8.928;2023-12-20T10:25:27;2.77;;;1.20;;
1725;SDS011;41776;48.260;8.928;2023-12-20T10:28:08;5.47;;;1.53;;
1725;SDS011;41776;48.260;8.928;2023-12-20T10:30:35;1.53;;;0.93;;
1725;SDS011;41776;48.260;8.928;2023-12-20T10:33:02;1.23;;;0.90;;
1725;SDS011;41776;48.260;8.928;2023-12-20T10:35:29;1.33;;;0.93;;
1725;SDS011;41776;48.260;8.928;2023-12-20T10:37:57;1.40;;;1.30;;
1725;SDS011;41776;48.260;8.928;2023-12-20T10:40:28;1.43;;;1.10;;
1725;SDS011;41776;48.260;8.928;2023-12-20T10:42:56;1.33;;;1.10;;
1725;SDS011;41776;48.260;8.928;2023-12-20T10:45:24;1.57;;;1.10;;
1725;SDS011;41776;48.260;8.928;2023-12-20T10:47:51;1.50;;;1.40;;
1725;SDS011;41776;48.260;8.928;2023-12-20T10:50:18;3.30;;;1.50;;
1725;SDS011;41776;48.260;8.928;2023-12-20T10:52:45;2.20;;;1.70;;
1725;SDS011;41776;48.260;8.928;2023-12-20T10:55:21;1.90;;;1.50;;
1725;SDS011;41776;48.260;8.928;2023-12-20T10:57:49;1.60;;;1.20;;
1725;SDS011;41776;48.260;8.928;2023-12-20T11:00:17;1.70;;;1.60;;
1725;SDS011;41776;48.260;8.928;2023-12-20T11:02:45;2.73;;;1.50;;
1725;SDS011;41776;48.260;8.928;2023-12-20T11:05:13;3.60;;;1.57;;
1725;SDS011;41776;48.260;8.928;2023-12-20T11:07:50;1.40;;;1.30;;
1725;SDS011;41776;48.260;8.928;2023-12-20T11:10:25;1.30;;;1.20;;
1725;SDS011;41776;48.260;8.928;2023-12-20T11:12:57;1.50;;;1.40;;
1725;SDS011;41776;48.260;8.928;2023-12-20T11:15:27;3.13;;;1.40;;
1725;SDS011;41776;48.260;8.928;2023-12-20T11:17:54;1.53;;;1.43;;
1725;SDS011;41776;48.260;8.928;2023-12-20T11:20:22;2.63;;;1.47;;
1725;SDS011;41776;48.260;8.928;2023-12-20T11:22:53;2.10;;;1.50;;
1725;SDS011;41776;48.260;8.928;2023-12-20T11:25:20;2.03;;;1.60;;
1725;SDS011;41776;48.260;8.928;2023-12-20T11:28:06;1.40;;;1.20;;
1725;SDS011;41776;48.260;8.928;2023-12-20T11:30:40;1.30;;;1.20;;
1725;SDS011;41776;48.260;8.928;2023-12-20T11:33:07;1.67;;;0.97;;
1725;SDS011;41776;48.260;8.928;2023-12-20T11:35:34;1.13;;;1.00;;
1725;SDS011;41776;48.260;8.928;2023-12-20T11:38:02;2.80;;;1.00;;
1725;SDS011;41776;48.260;8.928;2023-12-20T11:40:29;0.80;;;0.80;;
1725;SDS011;41776;48.260;8.928;2023-12-20T11:43:05;0.93;;;0.93;;
1725;SDS011;41776;48.260;8.928;2023-12-20T11:45:31;3.90;;;1.03;;
1725;SDS011;41776;48.260;8.928;2023-12-20T11:48:02;1.33;;;1.23;;
1725;SDS011;41776;48.260;8.928;2023-12-20T11:50:29;1.00;;;0.90;;
1725;SDS011;41776;48.260;8.928;2023-12-20T11:52:56;1.23;;;1.13;;
1725;SDS011;41776;48.260;8.928;2023-12-20T11:55:23;4.33;;;1.50;;
1725;SDS011;41776;48.260;8.928;2023-12-20T11:57:50;3.43;;;1.60;;
1725;SDS011;41776;48.260;8.928;2023-12-20T12:00:18;3.17;;;1.30;;
1725;SDS011;41776;48.260;8.928;2023-12-20T12:02:54;1.50;;;1.20;;
1725;SDS011;41776;48.260;8.928;2023-12-20T12:05:21;2.07;;;1.57;;
1725;SDS011;41776;48.260;8.928;2023-12-20T12:07:48;1.73;;;1.63;;
1725;SDS011;41776;48.260;8.928;2023-12-20T12:10:14;1.97;;;1.30;;
1725;SDS011;41776;48.260;8.928;2023-12-20T12:12:41;3.53;;;1.80;;
1725;SDS011;41776;48.260;8.928;2023-12-20T12:15:07;2.83;;;1.60;;
1725;SDS011;41776;48.260;8.928;2023-12-20T12:17:40;1.87;;;1.70;;
1725;SDS011;41776;48.260;8.928;2023-12-20T12:20:08;3.53;;;1.60;;
1725;SDS011;41776;48.260;8.928;2023-12-20T12:22:35;5.53;;;2.07;;
1725;SDS011;41776;48.260;8.928;2023-12-20T12:25:09;4.53;;;1.67;;
1725;SDS011;41776;48.260;8.928;2023-12-20T12:27:38;5.17;;;1.80;;
1725;SDS011;41776;48.260;8.928;2023-12-20T12:30:06;1.50;;;1.33;;
1725;SDS011;41776;48.260;8.928;2023-12-20T12:32:34;3.13;;;1.60;;
1725;SDS011;41776;48.260;8.928;2023-12-20T12:35:04;4.10;;;1.40;;
1725;SDS011;41776;48.260;8.928;2023-12-20T12:37:33;2.23;;;1.40;;
1725;SDS011;41776;48.260;8.928;2023-12-20T12:40:05;7.80;;;1.33;;
1725;SDS011;41776;48.260;8.928;2023-12-20T12:42:32;1.20;;;1.10;;
1725;SDS011;41776;48.260;8.928;2023-12-20T12:44:59;2.33;;;1.57;;
1725;SDS011;41776;48.260;8.928;2023-12-20T12:47:28;7.13;;;1.63;;
1725;SDS011;41776;48.260;8.928;2023-12-20T12:49:55;2.73;;;1.57;;
1725;SDS011;41776;48.260;8.928;2023-12-20T12:52:33;5.60;;;1.50;;
1725;SDS011;41776;48.260;8.928;2023-12-20T12:55:00;2.70;;;1.67;;
1725;SDS011;41776;48.260;8.928;2023-12-20T12:57:35;3.20;;;1.50;;
1725;SDS011;41776;48.260;8.928;2023-12-20T13:00:02;2.93;;;1.40;;
1725;SDS011;41776;48.260;8.928;2023-12-20T13:02:37;3.77;;;1.80;;
1725;SDS011;41776;48.260;8.928;2023-12-20T13:05:11;4.57;;;1.43;;
1725;SDS011;41776;48.260;8.928;2023-12-20T13:07:47;7.33;;;1.97;;
1725;SDS011;41776;48.260;8.928;2023-12-20T13:10:21;7.87;;;2.27;;
1725;SDS011;41776;48.260;8.928;2023-12-20T13:12:54;2.27;;;1.43;;
1725;SDS011;41776;48.260;8.928;2023-12-20T13:15:23;3.60;;;1.83;;
1725;SDS011;41776;48.260;8.928;2023-12-20T13:17:55;2.23;;;1.50;;
1725;SDS011;41776;48.260;8.928;2023-12-20T13:20:22;4.50;;;1.70;;
1725;SDS011;41776;48.260;8.928;2023-12-20T13:22:55;7.57;;;1.90;;
1725;SDS011;41776;48.260;8.928;2023-12-20T13:25:23;7.73;;;2.10;;
1725;SDS011;41776;48.260;8.928;2023-12-20T13:27:50;6.10;;;1.73;;
1725;SDS011;41776;48.260;8.928;2023-12-20T13:30:18;6.53;;;1.80;;
1725;SDS011;41776;48.260;8.928;2023-12-20T13:32:54;5.17;;;1.67;;
1725;SDS011;41776;48.260;8.928;2023-12-20T13:35:24;4.43;;;1.50;;
1725;SDS011;41776;48.260;8.928;2023-12-20T13:37:56;3.57;;;1.70;;
1725;SDS011;41776;48.260;8.928;2023-12-20T13:40:23;6.70;;;1.80;;
1725;SDS011;41776;48.260;8.928;2023-12-20T13:42:53;4.33;;;1.63;;
1725;SDS011;41776;48.260;8.928;2023-12-20T13:45:22;12.50;;;1.93;;
1725;SDS011;41776;48.260;8.928;2023-12-20T13:47:56;6.77;;;2.33;;
1725;SDS011;41776;48.260;8.928;2023-12-20T13:50:28;5.77;;;1.50;;
1725;SDS011;41776;48.260;8.928;2023-12-20T13:52:56;5.33;;;1.63;;
1725;SDS011;41776;48.260;8.928;2023-12-20T13:55:23;7.17;;;1.40;;
1725;SDS011;41776;48.260;8.928;2023-12-20T13:57:52;6.37;;;1.40;;
1725;SDS011;41776;48.260;8.928;2023-12-20T14:00:18;4.43;;;1.33;;
1725;SDS011;41776;48.260;8.928;2023-12-20T14:02:45;18.33;;;5.67;;
1725;SDS011;41776;48.260;8.928;2023-12-20T14:05:13;11.83;;;3.20;;
1725;SDS011;41776;48.260;8.928;2023-12-20T14:07:42;13.60;;;3.70;;
1725;SDS011;41776;48.260;8.928;2023-12-20T14:10:12;7.03;;;1.47;;
1725;SDS011;41776;48.260;8.928;2023-12-20T14:12:38;7.27;;;1.63;;
1725;SDS011;41776;48.260;8.928;2023-12-20T14:15:06;4.30;;;1.70;;
1725;SDS011;41776;48.260;8.928;2023-12-20T14:17:35;5.23;;;1.20;;
1725;SDS011;41776;48.260;8.928;2023-12-20T14:20:02;5.00;;;1.20;;
1725;SDS011;41776;48.260;8.928;2023-12-20T14:22:30;4.90;;;1.33;;
1725;SDS011;41776;48.260;8.928;2023-12-20T14:24:56;6.07;;;1.10;;
1725;SDS011;41776;48.260;8.928;2023-12-20T14:27:24;8.60;;;1.70;;
1725;SDS011;41776;48.260;8.928;2023-12-20T14:29:52;2.97;;;1.33;;
1725;SDS011;41776;48.260;8.928;2023-12-20T14:32:19;8.67;;;1.27;;
1725;SDS011;41776;48.260;8.928;2023-12-20T14:34:45;4.57;;;1.50;;
1725;SDS011;41776;48.260;8.928;2023-12-20T14:37:12;3.70;;;1.80;;
1725;SDS011;41776;48.260;8.928;2023-12-20T14:39:39;4.47;;;1.20;;
1725;SDS011;41776;48.260;8.928;2023-12-20T14:42:06;1.23;;;1.00;;
1725;SDS011;41776;48.260;8.928;2023-12-20T14:44:37;7.40;;;1.50;;
1725;SDS011;41776;48.260;8.928;2023-12-20T14:47:04;4.37;;;1.23;;
1725;SDS011;41776;48.260;8.928;2023-12-20T14:49:30;2.80;;;1.20;;
1725;SDS011;41776;48.260;8.928;2023-12-20T14:51:57;9.43;;;1.43;;
1725;SDS011;41776;48.260;8.928;2023-12-20T14:54:24;4.57;;;1.33;;
1725;SDS011;41776;48.260;8.928;2023-12-20T14:56:51;4.37;;;1.50;;
1725;SDS011;41776;48.260;8.928;2023-12-20T14:59:17;6.10;;;1.90;;
1725;SDS011;41776;48.260;8.928;2023-12-20T15:01:45;4.57;;;1.43;;
1725;SDS011;41776;48.260;8.928;2023-12-20T15:04:12;10.30;;;2.20;;